Saronic Champion — A8XF5 — position and weather

sailwx.info

Track history (hours):
 
Tides and Currents Weather Stations Pressure Air Temp Water Temp Dewpoint Dewpoint Depression Visibility Wind Speed Wind Dir Waves Ship Positions

Saronic Champion

Last reported at 2017-Aug-09 23:57 UTC. Time now 2017-Aug-19 18:54 UTC.
Position S 30°52' E 030°54'.
Warning: this ship's position is 9 days out of date.

Length 229 m; draft 14.9 m.

Type: Cargo ship. MMSI: 636014887.

Date/timePositionNaut miles runAvg speedWind from/ knotsBaromVisibWave heightAir tempDewpointWater temp
2017-Aug-09 23:57S 30°52' E 030°54'3613.6
2017-Aug-09 21:16S 30°24' E 031°20'413.5
2017-Aug-09 20:59S 30°21' E 031°23'713.5
2017-Aug-09 20:28S 30°15' E 031°28'613.4
2017-Aug-09 20:00S 30°10' E 031°32'713.3
2017-Aug-09 19:30S 30°05' E 031°37'713.1
2017-Aug-09 19:00S 30°00' E 031°42'713.1
2017-Aug-09 18:28S 29°54' E 031°47'612.9
2017-Aug-09 18:00S 29°50' E 031°51'713.2
2017-Aug-09 17:30S 29°45' E 031°56'  
Track history (hours):
 
Tides and Currents Weather Stations Pressure Air Temp Water Temp Dewpoint Dewpoint Depression Visibility Wind Speed Wind Dir Waves Ship Positions

Saronic Champion

Last reported at 2017-Aug-09 23:57 UTC. Time now 2017-Aug-19 18:54 UTC.
Position S 30°52' E 030°54'.
Warning: this ship's position is 9 days out of date.

Length 229 m; draft 14.9 m.

Type: Cargo ship. MMSI: 636014887.

Date/timePositionNaut miles runAvg speedWind from/ knotsBaromVisibWave heightAir tempDewpointWater temp
2017-Aug-09 23:57S 30°52' E 030°54'3613.6
2017-Aug-09 21:16S 30°24' E 031°20'413.5
2017-Aug-09 20:59S 30°21' E 031°23'713.5
2017-Aug-09 20:28S 30°15' E 031°28'613.4
2017-Aug-09 20:00S 30°10' E 031°32'713.3
2017-Aug-09 19:30S 30°05' E 031°37'713.1
2017-Aug-09 19:00S 30°00' E 031°42'713.1
2017-Aug-09 18:28S 29°54' E 031°47'612.9
2017-Aug-09 18:00S 29°50' E 031°51'713.2
2017-Aug-09 17:30S 29°45' E 031°56'  

Dump ship's entire track history